createdAt,value
2022-08-01T00:01:37.781Z,6.33
2022-08-01T00:04:00.928Z,6.57
2022-08-01T00:06:23.388Z,5.72
2022-08-01T00:08:46.018Z,6.00
2022-08-01T00:11:10.204Z,6.47
2022-08-01T00:13:32.832Z,5.87
2022-08-01T00:15:55.502Z,5.82
2022-08-01T00:18:18.333Z,7.20
2022-08-01T00:20:40.910Z,5.70
2022-08-01T00:23:04.517Z,7.07
2022-08-01T00:25:34.437Z,6.30
2022-08-01T00:27:57.248Z,8.73
2022-08-01T00:30:19.773Z,7.55
2022-08-01T00:32:43.697Z,5.95
2022-08-01T00:35:06.574Z,6.82
2022-08-01T00:37:29.308Z,6.10
2022-08-01T00:39:51.979Z,5.55
2022-08-01T00:42:14.664Z,5.90
2022-08-01T00:44:37.429Z,6.90
2022-08-01T00:47:00.150Z,7.90
2022-08-01T00:49:23.712Z,6.70
2022-08-01T00:51:46.415Z,7.00
2022-08-01T00:54:09.257Z,6.70
2022-08-01T00:56:35.966Z,5.90
2022-08-01T00:58:59.135Z,5.50
2022-08-01T01:01:22.855Z,8.60
2022-08-01T01:03:58.547Z,6.45
2022-08-01T01:06:54.403Z,7.03
2022-08-01T01:09:50.864Z,7.28
2022-08-01T01:12:23.299Z,7.82
2022-08-01T01:15:02.535Z,7.47
2022-08-01T01:17:49.701Z,8.23
2022-08-01T01:20:16.102Z,7.32
2022-08-01T01:22:53.816Z,7.97
2022-08-01T01:25:40.879Z,7.85
2022-08-01T01:28:21.520Z,6.73
2022-08-01T01:30:47.370Z,6.45
2022-08-01T01:33:12.314Z,11.68
2022-08-01T01:35:39.053Z,7.15
2022-08-01T01:38:08.151Z,7.65
2022-08-01T01:40:32.307Z,8.00
2022-08-01T01:42:57.661Z,10.35
2022-08-01T01:45:22.387Z,7.82
2022-08-01T01:47:46.268Z,6.90
2022-08-01T01:50:11.754Z,8.88
2022-08-01T01:52:35.520Z,7.77
2022-08-01T01:54:59.996Z,8.43
2022-08-01T01:57:23.918Z,8.50
2022-08-01T01:59:48.913Z,7.35
2022-08-01T02:02:13.689Z,6.32
2022-08-01T02:04:38.892Z,6.90
2022-08-01T02:07:03.162Z,7.38
2022-08-01T02:09:28.579Z,6.43
2022-08-01T02:12:07.297Z,6.68
2022-08-01T02:14:31.351Z,10.75
2022-08-01T02:16:57.824Z,7.33
2022-08-01T02:19:21.052Z,7.53
2022-08-01T02:21:52.461Z,7.35
2022-08-01T02:24:30.408Z,7.22
2022-08-01T02:26:55.752Z,8.00
2022-08-01T02:29:24.033Z,7.13
2022-08-01T02:31:49.475Z,8.38
2022-08-01T02:34:14.247Z,6.72
2022-08-01T02:36:38.055Z,8.73
2022-08-01T02:39:07.501Z,8.55
2022-08-01T02:41:32.646Z,7.30
2022-08-01T02:44:04.520Z,7.07
2022-08-01T02:46:34.936Z,7.20
2022-08-01T02:49:00.775Z,6.20
2022-08-01T02:51:25.797Z,7.82
2022-08-01T02:53:50.287Z,9.27
2022-08-01T02:56:14.861Z,7.15
2022-08-01T02:58:38.914Z,9.18
2022-08-01T03:01:03.749Z,7.47
2022-08-01T03:03:27.748Z,6.85
2022-08-01T03:05:50.492Z,7.80
2022-08-01T03:08:15.054Z,8.13
2022-08-01T03:10:39.868Z,9.23
2022-08-01T03:13:04.605Z,7.47
2022-08-01T03:15:32.000Z,7.90
2022-08-01T03:17:57.047Z,10.13
2022-08-01T03:20:22.316Z,7.82
2022-08-01T03:22:46.677Z,9.23
2022-08-01T03:25:10.065Z,7.53
2022-08-01T03:27:35.667Z,8.90
2022-08-01T03:30:03.689Z,9.17
2022-08-01T03:32:29.328Z,8.63
2022-08-01T03:34:52.242Z,12.05
2022-08-01T03:37:14.836Z,9.45
2022-08-01T03:39:48.196Z,8.30
2022-08-01T03:42:15.232Z,8.43
2022-08-01T03:44:40.333Z,8.07
2022-08-01T03:47:08.012Z,7.90
2022-08-01T03:49:38.831Z,6.65
2022-08-01T03:52:05.820Z,6.93
2022-08-01T03:54:33.694Z,6.80
2022-08-01T03:56:58.398Z,6.57
2022-08-01T03:59:22.314Z,10.23
2022-08-01T04:01:47.067Z,8.73
2022-08-01T04:04:10.077Z,7.80
2022-08-01T04:06:32.818Z,6.80
2022-08-01T04:08:56.847Z,7.40
2022-08-01T04:11:19.589Z,10.48
2022-08-01T04:13:44.371Z,6.32
2022-08-01T04:16:07.238Z,8.93
2022-08-01T04:18:29.792Z,7.73
2022-08-01T04:20:52.440Z,8.10
2022-08-01T04:23:18.509Z,8.20
2022-08-01T04:25:43.562Z,6.57
2022-08-01T04:28:08.644Z,6.97
2022-08-01T04:30:35.048Z,6.33
2022-08-01T04:33:00.178Z,7.05
2022-08-01T04:36:01.968Z,7.03
2022-08-01T04:38:06.605Z,7.03
2022-08-01T04:40:30.428Z,6.53
2022-08-01T04:42:53.161Z,7.60
2022-08-01T04:45:16.387Z,6.85
2022-08-01T04:47:40.626Z,6.75
2022-08-01T04:50:08.113Z,6.43
2022-08-01T04:52:39.139Z,5.70
2022-08-01T04:55:04.809Z,6.90
2022-08-01T04:57:27.606Z,7.10
2022-08-01T04:59:57.977Z,5.20
2022-08-01T05:02:20.525Z,6.15
2022-08-01T05:04:44.135Z,8.30
2022-08-01T05:07:07.818Z,6.87
2022-08-01T05:09:31.859Z,5.40
2022-08-01T05:11:54.759Z,7.53
2022-08-01T05:14:17.530Z,6.75
2022-08-01T05:16:40.500Z,6.05
2022-08-01T05:19:03.662Z,5.97
2022-08-01T05:21:30.042Z,4.72
2022-08-01T05:23:52.916Z,7.93
2022-08-01T05:26:16.651Z,6.28
2022-08-01T05:28:39.199Z,6.53
2022-08-01T05:31:01.848Z,6.17
2022-08-01T05:33:24.562Z,5.47
2022-08-01T05:35:47.864Z,5.40
2022-08-01T05:38:14.898Z,6.10
2022-08-01T05:40:38.137Z,6.50
2022-08-01T05:43:00.795Z,7.37
2022-08-01T05:45:23.438Z,6.80
2022-08-01T05:47:46.066Z,7.15
2022-08-01T05:50:09.348Z,6.13
2022-08-01T05:52:32.163Z,6.68
2022-08-01T05:54:54.807Z,5.97
2022-08-01T05:57:17.464Z,6.18
2022-08-01T05:59:40.112Z,7.03
2022-08-01T06:02:02.752Z,7.40
2022-08-01T06:04:25.545Z,8.52
2022-08-01T06:06:48.173Z,7.47
2022-08-01T06:09:10.844Z,6.03
2022-08-01T06:11:33.555Z,6.60
2022-08-01T06:13:56.241Z,5.25
2022-08-01T06:16:19.051Z,6.03
2022-08-01T06:18:41.771Z,5.97
2022-08-01T06:21:04.684Z,5.63
2022-08-01T06:23:32.729Z,6.78
2022-08-01T06:26:17.593Z,6.72
2022-08-01T06:28:43.558Z,6.50
2022-08-01T06:31:06.563Z,5.50
2022-08-01T06:33:29.417Z,6.15
2022-08-01T06:35:52.313Z,5.80
2022-08-01T06:38:15.055Z,5.88
2022-08-01T06:40:39.330Z,6.63
2022-08-01T06:43:01.982Z,6.07
2022-08-01T06:45:26.850Z,5.88
2022-08-01T06:47:50.695Z,7.03
2022-08-01T06:50:15.698Z,5.93
2022-08-01T06:52:38.994Z,6.88
2022-08-01T06:55:01.561Z,5.90
2022-08-01T06:57:24.196Z,7.78
2022-08-01T06:59:54.335Z,8.15
2022-08-01T07:02:17.534Z,7.97
2022-08-01T07:04:40.232Z,5.88
2022-08-01T07:07:03.355Z,8.30
2022-08-01T07:09:26.169Z,6.35
2022-08-01T07:11:48.721Z,7.15
2022-08-01T07:14:11.299Z,8.13
2022-08-01T07:16:34.130Z,6.63
2022-08-01T07:18:56.878Z,5.80
2022-08-01T07:21:39.690Z,5.88
2022-08-01T07:24:02.328Z,5.50
2022-08-01T07:26:36.163Z,4.45
2022-08-01T07:28:59.264Z,5.10
2022-08-01T07:31:22.105Z,5.73
2022-08-01T07:33:48.631Z,5.95
2022-08-01T07:36:12.177Z,5.70
2022-08-01T07:38:34.955Z,5.88
2022-08-01T07:40:57.903Z,5.47
2022-08-01T07:43:20.390Z,5.80
2022-08-01T07:45:46.427Z,7.03
2022-08-01T07:48:09.804Z,4.90
2022-08-01T07:50:34.123Z,6.78
2022-08-01T07:52:57.129Z,6.68
2022-08-01T07:55:19.805Z,4.17
2022-08-01T07:57:42.461Z,6.32
2022-08-01T08:00:09.241Z,4.43
2022-08-01T08:02:32.007Z,5.13
2022-08-01T08:04:54.685Z,5.25
2022-08-01T08:07:17.385Z,5.67
2022-08-01T08:09:42.815Z,6.65
2022-08-01T08:12:06.689Z,5.47
2022-08-01T08:14:32.555Z,5.07
2022-08-01T08:16:55.537Z,5.90
2022-08-01T08:19:20.806Z,5.63
2022-08-01T08:22:01.478Z,4.68
2022-08-01T08:24:27.310Z,4.72
2022-08-01T08:26:57.884Z,5.80
2022-08-01T08:29:21.839Z,4.65
2022-08-01T08:31:52.328Z,5.33
2022-08-01T08:34:15.859Z,7.15
2022-08-01T08:36:39.396Z,5.78
2022-08-01T08:39:10.609Z,6.28
2022-08-01T08:41:37.012Z,7.28
2022-08-01T08:44:06.646Z,6.90
2022-08-01T08:46:34.495Z,6.90
2022-08-01T08:48:57.449Z,7.22
2022-08-01T08:51:24.510Z,6.53
2022-08-01T08:53:48.166Z,5.18
2022-08-01T08:56:14.176Z,4.43
2022-08-01T08:58:38.829Z,7.85
2022-08-01T09:01:01.610Z,7.13
2022-08-01T09:03:24.301Z,6.45
2022-08-01T09:05:47.233Z,6.70
2022-08-01T09:08:10.004Z,5.57
2022-08-01T09:10:32.579Z,7.53
2022-08-01T09:13:08.724Z,11.68
2022-08-01T09:15:49.064Z,6.90
2022-08-01T09:18:41.552Z,7.60
2022-08-01T09:21:07.434Z,6.53
2022-08-01T09:23:54.024Z,5.80
2022-08-01T09:26:20.109Z,8.10
2022-08-01T09:28:47.840Z,6.15
2022-08-01T09:31:13.288Z,6.65
2022-08-01T09:33:56.578Z,5.70
2022-08-01T09:36:23.917Z,6.68
2022-08-01T09:38:50.882Z,5.43
2022-08-01T09:41:14.361Z,6.20
2022-08-01T09:43:37.656Z,6.50
2022-08-01T09:46:05.316Z,7.50
2022-08-01T09:48:30.222Z,7.18
2022-08-01T09:50:54.101Z,8.40
2022-08-01T09:53:30.316Z,6.97
2022-08-01T09:55:55.221Z,6.30
2022-08-01T09:58:17.821Z,6.37
2022-08-01T10:00:45.831Z,7.25
2022-08-01T10:03:28.031Z,6.20
2022-08-01T10:05:52.264Z,5.90
2022-08-01T10:08:15.588Z,6.78
2022-08-01T10:11:09.019Z,5.87
2022-08-01T10:13:36.351Z,5.57
2022-08-01T10:16:01.481Z,7.20
2022-08-01T10:18:26.301Z,6.72
2022-08-01T10:20:49.312Z,6.15
2022-08-01T10:23:12.928Z,5.10
2022-08-01T10:25:43.795Z,6.35
2022-08-01T10:28:23.716Z,5.82
2022-08-01T10:30:48.615Z,6.38
2022-08-01T10:33:20.003Z,6.55
2022-08-01T10:35:55.318Z,5.83
2022-08-01T10:38:19.071Z,6.35
2022-08-01T10:40:45.401Z,5.93
2022-08-01T10:43:10.423Z,5.70
2022-08-01T10:45:34.383Z,5.57
2022-08-01T10:48:21.001Z,6.60
2022-08-01T10:50:48.644Z,5.25
2022-08-01T10:53:23.240Z,5.57
2022-08-01T10:55:53.623Z,5.10
2022-08-01T10:58:25.385Z,4.95
2022-08-01T11:00:48.021Z,6.57
2022-08-01T11:03:10.617Z,5.65
2022-08-01T11:05:38.240Z,5.60
2022-08-01T11:08:10.415Z,5.20
2022-08-01T11:10:39.866Z,6.05
2022-08-01T11:13:04.590Z,5.13
2022-08-01T11:15:29.069Z,5.03
2022-08-01T11:17:55.096Z,5.63
2022-08-01T11:20:26.780Z,6.65
2022-08-01T11:23:06.936Z,5.13
2022-08-01T11:26:05.401Z,5.87
2022-08-01T11:28:32.859Z,4.75
2022-08-01T11:31:07.633Z,5.30
2022-08-01T11:33:46.212Z,4.70
2022-08-01T11:36:12.561Z,4.78
2022-08-01T11:38:35.388Z,5.93
2022-08-01T11:41:12.041Z,5.00
2022-08-01T11:43:35.503Z,4.63
2022-08-01T11:45:58.045Z,4.60
2022-08-01T11:48:27.568Z,4.28
2022-08-01T11:50:52.728Z,3.80
2022-08-01T11:53:16.430Z,5.13
2022-08-01T11:55:51.362Z,5.05
2022-08-01T11:58:22.222Z,4.30
2022-08-01T12:00:53.363Z,4.07
2022-08-01T12:03:25.938Z,5.43
2022-08-01T12:05:58.057Z,3.60
2022-08-01T12:08:28.308Z,4.15
2022-08-01T12:10:51.106Z,3.72
2022-08-01T12:13:24.872Z,4.15
2022-08-01T12:15:49.196Z,4.87
2022-08-01T12:18:14.712Z,5.43
2022-08-01T12:20:42.707Z,4.22
2022-08-01T12:23:17.648Z,4.57
2022-08-01T12:25:41.338Z,4.35
2022-08-01T12:28:09.268Z,5.23
2022-08-01T12:30:36.498Z,5.10
2022-08-01T12:32:59.526Z,5.07
2022-08-01T12:35:26.923Z,4.45
2022-08-01T12:37:55.355Z,6.55
2022-08-01T12:40:27.181Z,5.73
2022-08-01T12:42:52.638Z,4.57
2022-08-01T12:45:18.103Z,6.25
2022-08-01T12:47:41.980Z,8.02
2022-08-01T12:50:08.970Z,4.88
2022-08-01T12:52:33.048Z,5.53
2022-08-01T12:55:06.399Z,6.18
2022-08-01T12:57:32.986Z,5.05
2022-08-01T13:00:10.601Z,7.10
2022-08-01T13:02:36.451Z,5.78
2022-08-01T13:04:59.919Z,5.20
2022-08-01T13:07:22.546Z,5.45
2022-08-01T13:09:52.784Z,7.00
2022-08-01T13:12:15.514Z,5.20
2022-08-01T13:14:41.765Z,6.38
2022-08-01T13:17:04.858Z,6.43
2022-08-01T13:19:44.822Z,4.95
2022-08-01T13:22:07.649Z,4.53
2022-08-01T13:24:30.714Z,4.20
2022-08-01T13:26:57.207Z,4.30
2022-08-01T13:29:23.907Z,3.73
2022-08-01T13:31:46.843Z,5.65
2022-08-01T13:34:11.649Z,4.22
2022-08-01T13:36:34.870Z,4.70
2022-08-01T13:39:16.912Z,4.45
2022-08-01T13:41:40.011Z,4.60
2022-08-01T13:44:02.628Z,7.07
2022-08-01T13:46:25.331Z,4.30
2022-08-01T13:48:48.936Z,4.57
2022-08-01T13:51:21.913Z,4.38
2022-08-01T13:53:45.665Z,4.23
2022-08-01T13:56:08.199Z,4.65
2022-08-01T13:58:30.940Z,4.28
2022-08-01T14:00:53.532Z,4.20
2022-08-01T14:03:17.723Z,4.10
2022-08-01T14:05:40.705Z,5.10
2022-08-01T14:08:03.938Z,5.85
2022-08-01T14:10:27.163Z,4.30
2022-08-01T14:12:49.810Z,4.97
2022-08-01T14:15:12.358Z,4.82
2022-08-01T14:17:37.874Z,4.20
2022-08-01T14:20:00.791Z,4.80
2022-08-01T14:22:23.393Z,4.50
2022-08-01T14:24:45.951Z,5.50
2022-08-01T14:27:10.561Z,4.72
2022-08-01T14:30:00.185Z,4.97
2022-08-01T14:32:15.841Z,4.47
2022-08-01T14:34:38.413Z,5.10
2022-08-01T14:37:01.077Z,4.78
2022-08-01T14:39:25.967Z,4.55
2022-08-01T14:41:48.722Z,8.27
2022-08-01T14:44:11.317Z,4.72
2022-08-01T14:46:34.202Z,4.80
2022-08-01T14:48:56.925Z,4.78
2022-08-01T14:51:20.490Z,4.78
2022-08-01T14:53:46.981Z,7.60
2022-08-01T14:56:13.619Z,4.88
2022-08-01T14:58:36.410Z,5.32
2022-08-01T15:00:59.755Z,5.10
2022-08-01T15:03:23.167Z,5.93
2022-08-01T15:05:45.904Z,6.00
2022-08-01T15:08:08.841Z,4.80
2022-08-01T15:10:33.217Z,4.78
2022-08-01T15:12:56.630Z,5.10
2022-08-01T15:15:20.369Z,5.78
2022-08-01T15:17:43.014Z,4.83
2022-08-01T15:20:08.504Z,4.57
2022-08-01T15:22:33.495Z,4.88
2022-08-01T15:24:57.763Z,4.80
2022-08-01T15:27:20.555Z,5.50
2022-08-01T15:29:44.199Z,4.27
2022-08-01T15:32:08.100Z,5.03
2022-08-01T15:34:31.617Z,6.03
2022-08-01T15:36:54.186Z,5.20
2022-08-01T15:39:17.495Z,5.53
2022-08-01T15:41:40.138Z,4.33
2022-08-01T15:44:02.939Z,5.05
2022-08-01T15:46:25.541Z,4.85
2022-08-01T15:48:48.176Z,3.55
2022-08-01T15:51:10.834Z,4.22
2022-08-01T15:53:33.467Z,4.87
2022-08-01T15:55:56.040Z,4.43
2022-08-01T15:58:20.653Z,4.78
2022-08-01T16:00:43.160Z,4.65
2022-08-01T16:03:05.669Z,3.88
2022-08-01T16:05:28.385Z,4.57
2022-08-01T16:07:59.451Z,6.40
2022-08-01T16:10:24.370Z,4.20
2022-08-01T16:12:46.956Z,4.50
2022-08-01T16:15:10.240Z,4.22
2022-08-01T16:17:32.908Z,5.73
2022-08-01T16:19:55.629Z,3.85
2022-08-01T16:22:18.336Z,5.32
2022-08-01T16:24:40.936Z,3.92
2022-08-01T16:27:04.301Z,4.20
2022-08-01T16:29:30.802Z,4.60
2022-08-01T16:32:10.700Z,5.03
2022-08-01T16:34:36.158Z,4.32
2022-08-01T16:36:59.753Z,4.82
2022-08-01T16:39:23.638Z,4.78
2022-08-01T16:41:48.074Z,5.10
2022-08-01T16:44:10.883Z,3.83
2022-08-01T16:46:33.975Z,4.00
2022-08-01T16:48:56.702Z,4.32
2022-08-01T16:51:20.038Z,4.40
2022-08-01T16:53:42.671Z,4.40
2022-08-01T16:56:05.730Z,4.38
2022-08-01T16:58:28.343Z,4.90
2022-08-01T17:00:56.738Z,4.35
2022-08-01T17:03:51.376Z,5.80
2022-08-01T17:06:04.368Z,4.00
2022-08-01T17:08:26.995Z,4.20
2022-08-01T17:10:49.878Z,4.90
2022-08-01T17:13:12.451Z,3.72
2022-08-01T17:15:36.641Z,4.20
2022-08-01T17:17:59.496Z,4.97
2022-08-01T17:20:23.652Z,4.30
2022-08-01T17:22:46.318Z,5.07
2022-08-01T17:25:16.084Z,4.05
2022-08-01T17:27:38.900Z,4.00
2022-08-01T17:30:02.525Z,3.50
2022-08-01T17:32:25.790Z,4.15
2022-08-01T17:34:48.519Z,5.05
2022-08-01T17:37:11.265Z,4.30
2022-08-01T17:39:38.611Z,4.00
2022-08-01T17:42:02.197Z,5.03
2022-08-01T17:44:26.726Z,4.55
2022-08-01T17:46:49.241Z,4.07
2022-08-01T17:49:11.935Z,4.53
2022-08-01T17:51:34.556Z,4.10
2022-08-01T17:53:57.961Z,4.67
2022-08-01T17:56:20.799Z,5.20
2022-08-01T17:58:51.241Z,4.47
2022-08-01T18:01:17.312Z,5.93
2022-08-01T18:03:41.188Z,5.03
2022-08-01T18:06:05.031Z,4.40
2022-08-01T18:08:30.089Z,4.32
2022-08-01T18:10:55.380Z,5.13
2022-08-01T18:13:18.406Z,6.18
2022-08-01T18:15:45.153Z,5.55
2022-08-01T18:18:07.810Z,5.93
2022-08-01T18:20:30.537Z,4.90
2022-08-01T18:22:53.345Z,5.72
2022-08-01T18:25:15.923Z,5.90
2022-08-01T18:28:25.594Z,5.60
2022-08-01T18:30:21.738Z,6.83
2022-08-01T18:32:44.313Z,4.75
2022-08-01T18:35:13.284Z,5.93
2022-08-01T18:37:39.936Z,5.90
2022-08-01T18:40:12.829Z,6.25
2022-08-01T18:42:39.223Z,8.03
2022-08-01T18:45:01.871Z,6.47
2022-08-01T18:47:24.866Z,6.35
2022-08-01T18:49:48.296Z,6.72
2022-08-01T18:52:12.647Z,9.52
2022-08-01T18:54:35.336Z,7.40
2022-08-01T18:56:57.991Z,5.72
2022-08-01T18:59:21.633Z,6.07
2022-08-01T19:01:44.346Z,5.60
2022-08-01T19:04:07.964Z,7.05
2022-08-01T19:06:30.780Z,7.30
2022-08-01T19:08:57.009Z,7.22
2022-08-01T19:11:22.876Z,5.47
2022-08-01T19:13:45.456Z,5.72
2022-08-01T19:16:08.287Z,7.10
2022-08-01T19:18:31.544Z,7.57
2022-08-01T19:20:54.596Z,8.38
2022-08-01T19:23:36.157Z,7.90
2022-08-01T19:26:20.818Z,8.10
2022-08-01T19:29:06.631Z,7.07
2022-08-01T19:31:29.750Z,10.67
2022-08-01T19:33:53.990Z,7.28
2022-08-01T19:36:18.042Z,7.72
2022-08-01T19:38:41.627Z,5.85
2022-08-01T19:41:04.499Z,6.95
2022-08-01T19:43:27.496Z,6.67
2022-08-01T19:45:50.701Z,6.18
2022-08-01T19:48:14.803Z,6.60
2022-08-01T19:50:41.058Z,8.95
2022-08-01T19:53:04.059Z,7.60
2022-08-01T19:55:27.793Z,6.43
2022-08-01T19:58:17.418Z,6.63
2022-08-01T20:00:39.771Z,7.22
2022-08-01T20:03:03.708Z,8.38
2022-08-01T20:05:26.493Z,7.45
2022-08-01T20:07:50.384Z,7.30
2022-08-01T20:10:13.471Z,6.78
2022-08-01T20:12:38.508Z,6.57
2022-08-01T20:15:01.879Z,6.93
2022-08-01T20:17:25.011Z,9.32
2022-08-01T20:19:52.562Z,9.13
2022-08-01T20:22:18.917Z,7.20
2022-08-01T20:24:47.889Z,10.18
2022-08-01T20:27:11.818Z,14.60
2022-08-01T20:29:36.443Z,11.68
2022-08-01T20:32:00.404Z,15.00
2022-08-01T20:34:25.521Z,11.88
2022-08-01T20:36:56.578Z,12.00
2022-08-01T20:39:21.533Z,19.25
2022-08-01T20:41:59.382Z,16.80
2022-08-01T20:44:23.182Z,14.93
2022-08-01T20:46:50.709Z,14.52
2022-08-01T20:49:13.958Z,14.82
2022-08-01T20:51:42.039Z,11.75
2022-08-01T20:54:05.644Z,14.07
2022-08-01T20:56:39.280Z,12.83
2022-08-01T20:59:05.395Z,12.65
2022-08-01T21:01:30.903Z,8.95
2022-08-01T21:04:08.806Z,7.75
2022-08-01T21:06:37.870Z,8.65
2022-08-01T21:09:03.913Z,9.83
2022-08-01T21:11:36.997Z,8.23
2022-08-01T21:14:02.810Z,7.07
2022-08-01T21:16:30.285Z,7.82
2022-08-01T21:19:19.524Z,8.30
2022-08-01T21:21:59.983Z,8.17
2022-08-01T21:24:30.026Z,8.23
2022-08-01T21:26:53.919Z,8.00
2022-08-01T21:29:18.219Z,7.18
2022-08-01T21:31:41.738Z,8.18
2022-08-01T21:34:07.656Z,7.57
2022-08-01T21:36:31.532Z,8.95
2022-08-01T21:38:56.889Z,6.88
2022-08-01T21:41:56.297Z,9.18
2022-08-01T21:44:03.443Z,7.45
2022-08-01T21:46:30.292Z,8.13
2022-08-01T21:48:53.043Z,7.30
2022-08-01T21:51:29.811Z,6.90
2022-08-01T21:54:14.036Z,10.18
2022-08-01T21:57:07.114Z,7.45
2022-08-01T21:59:51.382Z,7.90
2022-08-01T22:02:35.676Z,7.72
2022-08-01T22:05:05.836Z,8.20
2022-08-01T22:07:35.073Z,8.02
2022-08-01T22:10:05.758Z,7.78
2022-08-01T22:12:29.771Z,8.57
2022-08-01T22:14:56.082Z,7.15
2022-08-01T22:17:25.252Z,6.80
2022-08-01T22:19:55.153Z,7.90
2022-08-01T22:22:45.279Z,7.32
2022-08-01T22:25:08.694Z,8.83
2022-08-01T22:28:08.867Z,7.95
2022-08-01T22:30:17.766Z,10.40
2022-08-01T22:32:43.339Z,12.95
2022-08-01T22:35:12.235Z,7.88
2022-08-01T22:37:56.454Z,8.20
2022-08-01T22:40:17.942Z,8.20
2022-08-01T22:43:11.162Z,7.45
2022-08-01T22:45:51.405Z,9.93
2022-08-01T22:48:19.730Z,8.35
2022-08-01T22:50:50.065Z,10.13
2022-08-01T22:53:29.632Z,9.60
2022-08-01T22:55:57.940Z,8.63
2022-08-01T22:58:23.212Z,8.95
2022-08-01T23:00:54.716Z,8.68
2022-08-01T23:03:26.972Z,12.63
2022-08-01T23:06:12.110Z,9.13
2022-08-01T23:08:36.104Z,8.93
2022-08-01T23:11:03.986Z,8.30
2022-08-01T23:13:28.448Z,7.80
2022-08-01T23:15:52.527Z,9.70
2022-08-01T23:18:16.488Z,9.18
2022-08-01T23:20:39.576Z,8.93
2022-08-01T23:23:03.356Z,7.63
2022-08-01T23:25:27.804Z,9.82
2022-08-01T23:28:04.642Z,8.53
2022-08-01T23:30:30.981Z,8.98
2022-08-01T23:32:54.033Z,7.30
2022-08-01T23:35:16.624Z,9.63
2022-08-01T23:37:39.402Z,7.25
2022-08-01T23:40:02.368Z,7.57
2022-08-01T23:42:25.227Z,6.75
2022-08-01T23:44:48.511Z,7.57
2022-08-01T23:47:11.290Z,8.63
2022-08-01T23:49:52.114Z,7.53
2022-08-01T23:52:20.852Z,7.00
2022-08-01T23:54:44.478Z,8.32
2022-08-01T23:57:07.262Z,7.03
2022-08-01T23:59:53.039Z,7.72
